Loisir ou Compétition : Rejoignez un Club de la Fédération

Résultats

L'ETOILE DES SAISIES

LES SAISIES

FP Dames

Jury de Compétition

Délégué Technique :
MARGUERETTAZ MICHEL ()
D.T. Adjoint :
 
Dir. Epreuve :
BRAY THOMAS (SA)

Caractéristiques de la Piste

Piste :
Site de Replis
Distance :
1.5 km
Point Haut :
 
Point Bas :
 
Montée Tot. :
 
Montée Max. :
 
Homologation :
-1

Pénalité Appliquée :
240.0000
Coefficient :
1400

Catégorie :
POU
Style :
L
Clt Dos Clt/Cat Code An Nom Prénom Com Club Temps Ecart Points
Classés
1 1538 1/POU LCN11271175 2002 MUNIER ELODIE SA MONOLITHE SF 04:56.4 00:00.0 240.00
2 1503 2/POU FFS2659929 2002 CERDAN ANNOUK LY US CORMARANC 05:06.5 00:10.1 287.71
3 1569 3/POU LCN11261646 2002 RAMAZ ADELAIDE SA BAUGES S.N 05:08.2 00:11.8 295.74
4 1565 4/POU FFS2660732 2003 COUPAT LIV FZ BESSAT S HIV 05:11.6 00:15.2 311.79
5 1510 5/POU FFS2663450 2002 GRISNAUX YSALINE SA SC MENUIRES 05:21.8 00:25.4 359.97
6 1564 6/POU FFS2653461 2003 VIAL PASCALINE SA CN REVARD 05:36.0 00:39.6 427.04
7 1539 7/POU LCN11271186 2002 VIGNOL MANON SA MONOLITHE SF 05:38.4 00:42.0 438.38
8 1568 8/POU LCN11263175 2002 MICHELON OCEANE SA BAUGES S.N 05:39.8 00:43.4 444.99
9 1556 9/POU FFS2654873 2002 GROSSET LINA MB CS MEGEVE 05:43.9 00:47.5 464.36
10 1563 10/POU FFS2654649 2002 BET DRENO LORINE SA CN REVARD 05:45.3 00:48.9 470.97
10 1574 10/POU LCN11266920 2002 TAFFIN NINA SA SC PEISEY VA 05:45.3 00:48.9 470.97
12 1553 12/POU FFS2644339 2002 SIMON FLORINE SA CS SAISIES 05:50.1 00:53.7 493.64
13 1516 13/POU FFS2651819 2002 DUCOL CLEMENCE SA SC MENUIRES 05:51.2 00:54.8 498.84
14 1557 14/POU FFS2660609 2003 PAGET MARGOT MB CS MEGEVE 05:52.8 00:56.4 506.40
15 1521 15/POU FFS2654837 2002 CHARVOLIN CANDICE LY SC BRENOD 05:54.0 00:57.6 512.06
16 1508 16/POU FFS2643680 2002 VIENNET ELISA SA SC VALLOIRE 06:00.6 01:04.2 543.24
17 1513 17/POU FFS2655511 2002 BAL CYNTHIA SA SC MENUIRES 06:13.9 01:17.5 606.06
18 1541 18/POU FFS2657793 2003 ZANELLATO ELODIE SA CS VAL CENIS 06:16.5 01:20.1 618.34
19 1506 19/POU LCN11297939 2002 FROMAGET ELISE SA SCOBE ALBERT 06:17.2 01:20.8 621.65
20 1530 20/POU LCN11311814 2003 RADIC JULIETTE SA SC ARECHES 06:17.8 01:21.4 624.48
21 1502 21/POU FFS2659930 2002 MOREL LENA LY US CORMARANC 06:18.1 01:21.7 625.90
22 1534 22/POU LCN11311793 2003 GERARD GESLIN MAYLIS SA SC ARECHES 06:26.6 01:30.2 666.05
23 1536 23/POU LCN11311815 2002 BESSON ALEXIA SA SC ARECHES 06:33.6 01:37.2 699.11
24 1542 24/POU FFS2650076 2002 BOURGEOIS MARIE SA CS VAL CENIS 06:37.3 01:40.9 716.59
25 1509 25/POU FFS2651951 2002 CHUZEVILLE LISA SA SC MENUIRES 06:38.5 01:42.1 722.25
26 1567 26/POU LCN11274596 2003 BROUTIER AMELIE SA BAUGES S.N 06:44.0 01:47.6 748.23
27 1551 27/POU FFS2646096 2002 MARQUANT LEHNA SA CS SAISIES 06:52.1 01:55.7 786.49
28 1537 28/POU FFS2656103 2002 MOREL EMMA AU PLOMB CANTAL 07:05.8 02:09.4 851.20
29 1559 29/POU LCN11262265 2003 RAT PATRON CAMILLE SA CS LA FECLAZ 07:15.1 02:18.7 895.13
30 1547 30/POU FFS2644369 2002 AUDINEAU CARLA SA CS SAISIES 07:40.4 02:44.0 1014.63
31 1526 31/POU FFS2664482 2003 DESENCLOS LENA SA SC ARECHES 07:41.0 02:44.6 1017.46
32 1505 32/POU FFS2661947 2002 GOAER HERVEA SA SKISNOW USCC 08:05.6 03:09.2 1133.66
33 1525 33/POU LCN11311816 2002 VIARD CHLOE SA SC ARECHES 08:25.9 03:29.5 1229.54
34 1543 34/POU FFS2650062 2002 MARTINEZ LISON SA CS VAL CENIS 08:31.6 03:35.2 1256.40
35 1531 35/POU LCN11311809 2003 JOGUET NINON SA SC ARECHES 08:35.9 03:39.5 1276.70
36 1527 36/POU LCN11311807 2003 JOGUET MARIE SA SC ARECHES 09:18.7 04:22.3 1478.90
37 1582 37/POU TIC6106033 2002 ROBERT JULIA 09:26.0 04:29.6 1513.40
Non partants
1529 LCN11311818 2002 SAINTENOY RACHEL SA SC ARECHES